createdAt,value
2017-09-06T00:00:26.088Z,83.2
2017-09-06T00:01:27.903Z,82.4
2017-09-06T00:02:29.505Z,82.0
2017-09-06T00:03:31.247Z,82.4
2017-09-06T00:04:32.871Z,82.2
2017-09-06T00:05:34.641Z,82.1
2017-09-06T00:06:36.249Z,83.4
2017-09-06T00:07:38.919Z,82.0
2017-09-06T00:08:40.625Z,82.3
2017-09-06T00:09:42.323Z,81.8
2017-09-06T00:10:44.017Z,83.2
2017-09-06T00:11:45.740Z,82.9
2017-09-06T00:12:47.375Z,83.4
2017-09-06T00:13:49.127Z,83.9
2017-09-06T00:14:50.842Z,83.6
2017-09-06T00:15:52.546Z,82.7
2017-09-06T00:16:54.204Z,83.6
2017-09-06T00:17:55.987Z,83.2
2017-09-06T00:18:57.623Z,83.1
2017-09-06T00:20:00.257Z,83.5
2017-09-06T00:21:01.940Z,83.5
2017-09-06T00:22:03.595Z,83.8
2017-09-06T00:23:05.228Z,83.6
2017-09-06T00:24:06.838Z,83.2
2017-09-06T00:25:08.533Z,83.6
2017-09-06T00:26:10.244Z,83.0
2017-09-06T00:27:11.876Z,82.3
2017-09-06T00:28:13.692Z,82.6
2017-09-06T00:29:15.355Z,83.2
2017-09-06T00:30:17.083Z,83.3
2017-09-06T00:31:18.764Z,83.1
2017-09-06T00:32:21.410Z,82.2
2017-09-06T00:33:22.998Z,82.9
2017-09-06T00:34:24.713Z,83.4
2017-09-06T00:35:26.410Z,82.8
2017-09-06T00:36:28.199Z,83.7
2017-09-06T00:37:29.805Z,83.8
2017-09-06T00:38:31.542Z,83.6
2017-09-06T00:39:33.210Z,84.2
2017-09-06T00:40:34.939Z,84.7
2017-09-06T00:41:36.605Z,84.5
2017-09-06T00:42:38.345Z,85.0
2017-09-06T00:43:39.946Z,85.2
2017-09-06T00:44:41.643Z,85.6
2017-09-06T00:45:43.325Z,85.5
2017-09-06T00:46:45.064Z,85.1
2017-09-06T00:47:46.806Z,84.9
2017-09-06T00:48:48.547Z,85.2
2017-09-06T00:49:50.194Z,85.4
2017-09-06T00:50:51.913Z,85.4
2017-09-06T00:51:53.455Z,84.8
2017-09-06T00:52:55.205Z,85.4
2017-09-06T00:53:56.892Z,86.3
2017-09-06T00:54:58.552Z,85.8
2017-09-06T00:56:00.188Z,85.9
2017-09-06T00:57:01.844Z,86.5
2017-09-06T00:58:03.493Z,86.0
2017-09-06T00:59:05.119Z,86.4
2017-09-06T01:00:06.774Z,86.3
2017-09-06T01:01:08.619Z,85.8
2017-09-06T01:02:10.240Z,85.9
2017-09-06T01:03:11.985Z,85.9
2017-09-06T01:04:13.660Z,85.8
2017-09-06T01:05:15.400Z,85.6
2017-09-06T01:06:17.014Z,85.4
2017-09-06T01:07:18.735Z,86.0
2017-09-06T01:08:20.407Z,85.6
2017-09-06T01:09:22.193Z,86.1
2017-09-06T01:10:23.861Z,85.9
2017-09-06T01:11:25.544Z,85.7
2017-09-06T01:12:27.292Z,85.9
2017-09-06T01:13:29.029Z,86.2
2017-09-06T01:14:30.766Z,86.0
2017-09-06T01:15:32.561Z,85.8
2017-09-06T01:16:34.185Z,86.1
2017-09-06T01:17:35.884Z,86.0
2017-09-06T01:18:37.492Z,86.0
2017-09-06T01:19:39.142Z,85.8
2017-09-06T01:20:40.863Z,85.9
2017-09-06T01:21:42.573Z,86.5
2017-09-06T01:22:44.258Z,86.0
2017-09-06T01:23:45.997Z,85.7
2017-09-06T01:24:47.659Z,85.3
2017-09-06T01:25:49.412Z,85.4
2017-09-06T01:26:51.064Z,85.4
2017-09-06T01:27:52.814Z,85.2
2017-09-06T01:28:54.450Z,85.3
2017-09-06T01:29:56.197Z,86.0
2017-09-06T01:30:57.890Z,85.9
2017-09-06T01:31:59.542Z,85.8
2017-09-06T01:33:01.207Z,84.9
2017-09-06T01:34:02.888Z,85.4
2017-09-06T01:35:04.574Z,85.3
2017-09-06T01:36:06.339Z,85.6
2017-09-06T01:37:07.991Z,85.6
2017-09-06T01:38:09.770Z,85.5
2017-09-06T01:39:11.402Z,86.0
2017-09-06T01:40:13.094Z,85.4
2017-09-06T01:41:14.728Z,85.5
2017-09-06T01:42:16.367Z,85.4
2017-09-06T01:43:18.044Z,85.4
2017-09-06T01:44:19.770Z,85.3
2017-09-06T01:45:21.368Z,86.1
2017-09-06T01:46:24.064Z,85.8
2017-09-06T01:47:25.737Z,85.3
2017-09-06T01:48:27.478Z,85.6
2017-09-06T01:49:29.150Z,85.8
2017-09-06T01:50:30.922Z,85.3
2017-09-06T01:51:32.462Z,85.8
2017-09-06T01:52:34.202Z,86.0
2017-09-06T01:53:35.852Z,85.9
2017-09-06T01:54:37.503Z,86.2
2017-09-06T01:55:39.159Z,86.1
2017-09-06T01:56:40.837Z,85.8
2017-09-06T01:57:42.535Z,86.4
2017-09-06T01:58:44.242Z,86.0
2017-09-06T01:59:45.832Z,86.1
2017-09-06T02:00:47.578Z,86.3
2017-09-06T02:01:49.187Z,86.3
2017-09-06T02:02:50.895Z,86.3
2017-09-06T02:03:52.551Z,85.4
2017-09-06T02:04:54.301Z,85.9
2017-09-06T02:05:55.902Z,85.9
2017-09-06T02:06:57.616Z,85.4
2017-09-06T02:07:59.315Z,85.8
2017-09-06T02:09:00.987Z,85.8
2017-09-06T02:10:02.636Z,85.9
2017-09-06T02:11:04.464Z,86.2
2017-09-06T02:12:06.200Z,86.5
2017-09-06T02:13:07.892Z,87.0
2017-09-06T02:14:09.532Z,86.6
2017-09-06T02:15:11.236Z,86.3
2017-09-06T02:16:12.981Z,87.7
2017-09-06T02:17:14.773Z,88.3
2017-09-06T02:18:16.549Z,87.6
2017-09-06T02:19:18.337Z,87.4
2017-09-06T02:20:20.045Z,87.3
2017-09-06T02:21:21.794Z,86.7
2017-09-06T02:22:23.447Z,87.7
2017-09-06T02:23:25.165Z,87.4
2017-09-06T02:24:26.861Z,87.6
2017-09-06T02:25:28.556Z,87.3
2017-09-06T02:26:30.227Z,87.3
2017-09-06T02:27:31.996Z,86.9
2017-09-06T02:28:33.717Z,86.9
2017-09-06T02:29:35.458Z,87.3
2017-09-06T02:30:37.155Z,87.3
2017-09-06T02:31:38.841Z,86.7
2017-09-06T02:32:40.516Z,86.7
2017-09-06T02:33:42.190Z,86.5
2017-09-06T02:34:43.856Z,86.7
2017-09-06T02:35:45.572Z,87.6
2017-09-06T02:36:47.190Z,87.5
2017-09-06T02:37:48.891Z,86.7
2017-09-06T02:38:50.533Z,86.3
2017-09-06T02:39:52.348Z,86.2
2017-09-06T02:40:53.952Z,87.4
2017-09-06T02:41:55.705Z,87.4
2017-09-06T02:42:57.445Z,87.0
2017-09-06T02:43:59.151Z,87.6
2017-09-06T02:45:00.759Z,87.1
2017-09-06T02:46:02.408Z,86.8
2017-09-06T02:47:04.054Z,86.8
2017-09-06T02:48:05.733Z,87.1
2017-09-06T02:49:07.346Z,87.3
2017-09-06T02:50:09.028Z,88.1
2017-09-06T02:51:10.668Z,88.1
2017-09-06T02:52:12.291Z,88.4
2017-09-06T02:53:13.993Z,87.9
2017-09-06T02:54:15.750Z,88.3
2017-09-06T02:55:17.391Z,88.7
2017-09-06T02:56:19.112Z,87.7
2017-09-06T02:57:20.699Z,88.2
2017-09-06T02:58:22.315Z,88.4
2017-09-06T02:59:24.003Z,88.6
2017-09-06T03:00:25.755Z,88.6
2017-09-06T03:01:27.465Z,88.3
2017-09-06T03:02:29.227Z,88.4
2017-09-06T03:03:30.951Z,88.3
2017-09-06T03:04:32.696Z,88.1
2017-09-06T03:05:34.338Z,88.7
2017-09-06T03:06:36.065Z,89.3
2017-09-06T03:07:37.716Z,88.4
2017-09-06T03:08:39.493Z,88.7
2017-09-06T03:09:41.113Z,87.8
2017-09-06T03:10:42.850Z,88.1
2017-09-06T03:11:44.520Z,87.5
2017-09-06T03:12:48.151Z,88.0
2017-09-06T03:13:49.791Z,88.9
2017-09-06T03:14:51.537Z,89.3
2017-09-06T03:15:53.185Z,89.3
2017-09-06T03:16:54.901Z,89.4
2017-09-06T03:17:56.588Z,89.3
2017-09-06T03:18:58.232Z,88.5
2017-09-06T03:19:59.882Z,89.0
2017-09-06T03:21:01.488Z,88.1
2017-09-06T03:22:03.238Z,88.7
2017-09-06T03:23:04.952Z,88.1
2017-09-06T03:24:06.640Z,88.9
2017-09-06T03:25:08.371Z,89.8
2017-09-06T03:26:10.088Z,88.4
2017-09-06T03:27:12.808Z,88.8
2017-09-06T03:28:14.455Z,88.0
2017-09-06T03:29:16.196Z,88.1
2017-09-06T03:30:17.851Z,88.1
2017-09-06T03:31:19.544Z,88.1
2017-09-06T03:32:21.160Z,88.4
2017-09-06T03:33:22.839Z,88.0
2017-09-06T03:34:24.512Z,88.2
2017-09-06T03:35:26.253Z,87.5
2017-09-06T03:36:27.917Z,88.1
2017-09-06T03:37:29.643Z,88.4
2017-09-06T03:38:31.319Z,88.1
2017-09-06T03:39:33.002Z,87.9
2017-09-06T03:40:34.622Z,87.9
2017-09-06T03:41:36.372Z,87.8
2017-09-06T03:42:38.066Z,88.3
2017-09-06T03:43:39.858Z,88.3
2017-09-06T03:44:41.596Z,87.7
2017-09-06T03:45:43.291Z,88.1
2017-09-06T03:46:44.938Z,87.7
2017-09-06T03:47:46.682Z,87.9
2017-09-06T03:48:48.460Z,88.1
2017-09-06T03:49:51.173Z,88.1
2017-09-06T03:50:52.780Z,88.1
2017-09-06T03:51:54.630Z,88.6
2017-09-06T03:52:56.291Z,88.3
2017-09-06T03:53:58.236Z,87.9
2017-09-06T03:55:00.241Z,87.7
2017-09-06T03:56:02.359Z,88.5
2017-09-06T03:57:04.317Z,88.8
2017-09-06T03:58:06.291Z,88.7
2017-09-06T03:59:08.217Z,88.7
2017-09-06T04:00:10.291Z,88.3
2017-09-06T04:01:12.215Z,88.6
2017-09-06T04:02:14.180Z,89.3
2017-09-06T04:03:16.126Z,88.8
2017-09-06T04:04:18.057Z,89.2
2017-09-06T04:05:20.028Z,89.0
2017-09-06T04:06:22.002Z,90.0
2017-09-06T04:07:23.888Z,90.4
2017-09-06T04:08:25.930Z,89.8
2017-09-06T04:09:27.960Z,90.1
2017-09-06T04:10:29.998Z,89.4
2017-09-06T04:11:31.920Z,90.0
2017-09-06T04:12:33.945Z,89.8
2017-09-06T04:13:35.851Z,90.4
2017-09-06T04:14:37.859Z,90.6
2017-09-06T04:15:39.835Z,90.3
2017-09-06T04:16:41.796Z,90.2
2017-09-06T04:17:43.666Z,90.4
2017-09-06T04:18:45.654Z,90.4
2017-09-06T04:19:47.579Z,90.9
2017-09-06T04:20:50.542Z,90.6
2017-09-06T04:21:52.556Z,90.1
2017-09-06T04:22:54.509Z,90.7
2017-09-06T04:23:56.435Z,91.0
2017-09-06T04:24:58.366Z,91.5
2017-09-06T04:26:00.326Z,90.6
2017-09-06T04:27:03.383Z,91.3
2017-09-06T04:28:05.344Z,90.7
2017-09-06T04:29:07.265Z,91.3
2017-09-06T04:30:09.240Z,91.6
2017-09-06T04:31:11.245Z,91.7
2017-09-06T04:32:13.222Z,92.0
2017-09-06T04:33:15.091Z,92.6
2017-09-06T04:34:17.037Z,92.5
2017-09-06T04:35:18.963Z,92.5
2017-09-06T04:36:21.041Z,92.2
2017-09-06T04:37:23.090Z,91.5
2017-09-06T04:38:24.991Z,91.1
2017-09-06T04:39:26.993Z,91.7
2017-09-06T04:40:28.880Z,91.8
2017-09-06T04:41:30.812Z,92.8
2017-09-06T04:42:32.802Z,92.6
2017-09-06T04:43:34.840Z,91.8
2017-09-06T04:44:36.873Z,92.9
2017-09-06T04:45:38.761Z,93.2
2017-09-06T04:46:40.740Z,93.3
2017-09-06T04:47:42.845Z,93.2
2017-09-06T04:48:44.831Z,93.1
2017-09-06T04:49:46.908Z,93.4
2017-09-06T04:50:48.821Z,94.0
2017-09-06T04:51:50.845Z,94.3
2017-09-06T04:52:52.754Z,93.7
2017-09-06T04:53:54.767Z,94.3
2017-09-06T04:54:56.810Z,94.0
2017-09-06T04:55:58.859Z,93.4
2017-09-06T04:57:00.831Z,93.9
2017-09-06T04:58:02.723Z,93.6
2017-09-06T04:59:04.688Z,94.5
2017-09-06T05:00:06.605Z,94.5
2017-09-06T05:01:08.526Z,95.2
2017-09-06T05:02:10.453Z,95.0
2017-09-06T05:03:12.325Z,94.2
2017-09-06T05:04:14.260Z,94.2
2017-09-06T05:05:16.166Z,94.0
2017-09-06T05:06:18.134Z,94.1
2017-09-06T05:07:20.133Z,93.6
2017-09-06T05:08:21.999Z,93.4
2017-09-06T05:09:23.957Z,93.8
2017-09-06T05:10:25.946Z,94.3
2017-09-06T05:11:27.920Z,94.3
2017-09-06T05:12:30.932Z,93.9
2017-09-06T05:13:32.971Z,93.6
2017-09-06T05:14:34.879Z,93.8
2017-09-06T05:15:36.869Z,93.6
2017-09-06T05:16:38.793Z,94.1
2017-09-06T05:17:40.687Z,93.7
2017-09-06T05:18:42.711Z,94.1
2017-09-06T05:19:44.753Z,94.4
2017-09-06T05:20:46.622Z,94.2
2017-09-06T05:21:48.626Z,93.7
2017-09-06T05:22:50.622Z,94.2
2017-09-06T05:23:52.531Z,94.2
2017-09-06T05:24:54.609Z,94.2
2017-09-06T05:25:56.692Z,94.6
2017-09-06T05:26:58.597Z,94.8
2017-09-06T05:28:00.625Z,94.5
2017-09-06T05:29:02.575Z,94.4
2017-09-06T05:30:04.493Z,94.6
2017-09-06T05:31:06.436Z,94.9
2017-09-06T05:32:08.431Z,94.9
2017-09-06T05:33:10.399Z,94.4
2017-09-06T05:34:12.582Z,94.4
2017-09-06T05:35:14.511Z,94.1
2017-09-06T05:36:16.487Z,94.6
2017-09-06T05:37:18.503Z,94.3
2017-09-06T05:38:20.440Z,95.0
2017-09-06T05:39:23.290Z,94.5
2017-09-06T05:40:25.283Z,94.5
2017-09-06T05:41:27.405Z,94.6
2017-09-06T05:42:29.452Z,94.5
2017-09-06T05:43:31.452Z,94.4
2017-09-06T05:44:33.378Z,94.8
2017-09-06T05:45:35.332Z,94.7
2017-09-06T05:46:37.299Z,94.6
2017-09-06T05:47:39.339Z,94.5
2017-09-06T05:48:41.270Z,94.4
2017-09-06T05:49:43.524Z,94.4
2017-09-06T05:50:45.455Z,94.7
2017-09-06T05:51:47.571Z,94.4
2017-09-06T05:52:49.675Z,94.5
2017-09-06T05:53:51.670Z,94.3
2017-09-06T05:54:53.823Z,94.5
2017-09-06T05:55:55.803Z,93.9
2017-09-06T05:56:57.843Z,94.1
2017-09-06T05:57:59.778Z,94.0
2017-09-06T05:59:01.725Z,94.0
2017-09-06T06:00:03.594Z,94.3
2017-09-06T06:01:05.526Z,94.2
2017-09-06T06:02:07.456Z,94.2
2017-09-06T06:03:09.310Z,94.5
2017-09-06T06:04:11.295Z,94.8
2017-09-06T06:05:13.148Z,94.2
2017-09-06T06:06:15.067Z,94.2
2017-09-06T06:07:17.012Z,94.7
2017-09-06T06:08:18.931Z,94.3
2017-09-06T06:09:20.849Z,94.4
2017-09-06T06:10:22.852Z,94.0
2017-09-06T06:11:24.742Z,93.9
2017-09-06T06:12:26.781Z,93.4
2017-09-06T06:13:28.752Z,93.3
2017-09-06T06:14:30.605Z,94.1
2017-09-06T06:15:32.569Z,93.8
2017-09-06T06:16:34.518Z,93.1
2017-09-06T06:17:36.488Z,93.0
2017-09-06T06:18:38.544Z,92.6
2017-09-06T06:19:40.697Z,92.9
2017-09-06T06:20:42.732Z,92.5
2017-09-06T06:21:44.753Z,92.6
2017-09-06T06:22:46.735Z,92.1
2017-09-06T06:23:48.681Z,92.0
2017-09-06T06:24:50.741Z,91.8
2017-09-06T06:25:52.739Z,91.8
2017-09-06T06:26:54.740Z,91.6
2017-09-06T06:27:56.714Z,91.7
2017-09-06T06:28:58.693Z,91.8
2017-09-06T06:30:00.696Z,91.2
2017-09-06T06:31:02.836Z,91.3
2017-09-06T06:32:04.852Z,91.5
2017-09-06T06:33:06.890Z,90.8
2017-09-06T06:34:08.843Z,91.2
2017-09-06T06:35:10.881Z,91.5
2017-09-06T06:36:12.902Z,91.3
2017-09-06T06:37:14.879Z,90.6
2017-09-06T06:38:17.117Z,91.2
2017-09-06T06:39:21.220Z,90.7
2017-09-06T06:40:23.219Z,90.9
2017-09-06T06:41:25.154Z,90.7
2017-09-06T06:42:27.217Z,90.9
2017-09-06T06:43:29.150Z,90.8
2017-09-06T06:44:31.147Z,90.2
2017-09-06T06:45:33.035Z,90.2
2017-09-06T06:46:34.950Z,90.4
2017-09-06T06:47:38.948Z,90.4
2017-09-06T06:48:40.875Z,90.3
2017-09-06T06:49:42.814Z,90.2
2017-09-06T06:50:44.747Z,89.4
2017-09-06T06:51:46.760Z,90.0
2017-09-06T06:52:48.726Z,90.0
2017-09-06T06:53:52.798Z,90.0
2017-09-06T06:54:54.922Z,89.7
2017-09-06T06:55:56.903Z,90.2
2017-09-06T06:56:58.978Z,89.4
2017-09-06T06:58:00.967Z,89.5
2017-09-06T06:59:02.998Z,89.3
2017-09-06T07:00:04.998Z,89.7
2017-09-06T07:02:06.793Z,89.3
2017-09-06T07:03:08.469Z,89.2
2017-09-06T07:04:11.557Z,89.2
2017-09-06T07:05:13.557Z,88.9
2017-09-06T07:06:15.820Z,88.3
2017-09-06T07:07:17.834Z,88.5
2017-09-06T07:08:19.793Z,88.7
2017-09-06T07:09:21.848Z,88.0
2017-09-06T07:10:23.892Z,88.2
2017-09-06T07:11:26.051Z,88.0
2017-09-06T07:12:28.111Z,87.5
2017-09-06T07:13:30.160Z,87.3
2017-09-06T07:14:32.239Z,87.3
2017-09-06T07:15:34.205Z,87.4
2017-09-06T07:16:36.230Z,86.6
2017-09-06T07:17:38.256Z,86.7
2017-09-06T07:18:40.267Z,86.6
2017-09-06T07:19:42.124Z,86.4
2017-09-06T07:20:44.064Z,86.2
2017-09-06T07:21:46.086Z,86.7
2017-09-06T07:22:48.080Z,86.1
2017-09-06T07:23:50.142Z,86.4
2017-09-06T07:24:52.237Z,86.7
2017-09-06T07:25:54.166Z,86.5
2017-09-06T07:26:56.176Z,86.6
2017-09-06T07:27:58.130Z,86.2
2017-09-06T07:29:00.194Z,86.4
2017-09-06T07:30:02.014Z,86.3
2017-09-06T07:31:03.969Z,86.2
2017-09-06T07:32:05.970Z,86.2
2017-09-06T07:33:07.902Z,86.3
2017-09-06T07:34:09.852Z,86.4
2017-09-06T07:35:11.914Z,86.3
2017-09-06T07:36:13.856Z,86.3
2017-09-06T07:37:15.803Z,86.2
2017-09-06T07:38:17.811Z,86.3
2017-09-06T07:39:20.036Z,86.3
2017-09-06T07:40:22.053Z,86.2
2017-09-06T07:41:24.025Z,86.2
2017-09-06T07:42:26.071Z,86.3
2017-09-06T07:43:28.043Z,86.2
2017-09-06T07:44:30.379Z,86.2
2017-09-06T07:45:32.252Z,86.3
2017-09-06T07:46:34.282Z,86.5
2017-09-06T07:47:36.333Z,86.0
2017-09-06T07:48:38.320Z,86.0
2017-09-06T07:49:40.310Z,86.7
2017-09-06T07:50:42.221Z,86.3
2017-09-06T07:51:44.244Z,86.1
2017-09-06T07:52:46.258Z,86.2
2017-09-06T07:53:48.239Z,86.5
2017-09-06T07:54:50.255Z,86.4
2017-09-06T07:55:52.272Z,86.2
2017-09-06T07:56:54.290Z,85.8
2017-09-06T07:57:56.419Z,85.7
2017-09-06T07:58:58.464Z,85.8
2017-09-06T08:00:00.480Z,85.5
2017-09-06T08:02:06.835Z,85.3
2017-09-06T08:03:08.491Z,85.3
2017-09-06T08:04:10.273Z,84.4
2017-09-06T08:05:12.273Z,84.9
2017-09-06T08:06:14.246Z,85.3
2017-09-06T08:07:16.211Z,84.9
2017-09-06T08:08:19.246Z,83.7
2017-09-06T08:09:21.239Z,83.5
2017-09-06T08:10:23.184Z,83.9
2017-09-06T08:11:25.178Z,84.2
2017-09-06T08:12:27.243Z,84.0
2017-09-06T08:13:29.215Z,84.3
2017-09-06T08:14:31.256Z,83.8
2017-09-06T08:15:33.271Z,83.3
2017-09-06T08:16:35.258Z,83.3
2017-09-06T08:17:37.330Z,82.6
2017-09-06T08:18:39.271Z,82.4
2017-09-06T08:19:41.390Z,82.5
2017-09-06T08:20:43.317Z,82.1
2017-09-06T08:21:45.264Z,82.2
2017-09-06T08:22:47.203Z,82.0
2017-09-06T08:23:49.301Z,81.5
2017-09-06T08:24:51.207Z,81.5
2017-09-06T08:25:53.183Z,82.0
2017-09-06T08:26:56.190Z,82.0
2017-09-06T08:27:58.327Z,81.7
2017-09-06T08:29:00.285Z,81.8
2017-09-06T08:30:02.322Z,81.5
2017-09-06T08:31:04.334Z,82.1
2017-09-06T08:32:06.355Z,81.5
2017-09-06T08:33:08.386Z,81.6
2017-09-06T08:34:10.413Z,80.9
2017-09-06T08:35:12.374Z,80.6
2017-09-06T08:36:14.741Z,80.7
2017-09-06T08:37:16.814Z,80.4
2017-09-06T08:38:18.811Z,79.0
2017-09-06T08:39:20.783Z,78.1
2017-09-06T08:40:22.769Z,78.2
2017-09-06T08:41:24.728Z,77.2
2017-09-06T08:42:26.793Z,77.3
2017-09-06T08:43:28.825Z,77.2
2017-09-06T08:44:30.846Z,77.3
2017-09-06T08:45:32.891Z,76.8
2017-09-06T08:46:35.306Z,77.1
2017-09-06T08:47:37.182Z,77.1
2017-09-06T08:48:39.209Z,77.4
2017-09-06T08:49:41.205Z,77.2
2017-09-06T08:50:43.174Z,76.3
2017-09-06T08:51:45.144Z,76.5
2017-09-06T08:52:47.142Z,75.4
2017-09-06T08:53:49.053Z,75.5
2017-09-06T08:54:50.912Z,74.8
2017-09-06T08:55:52.933Z,75.0
2017-09-06T08:56:54.895Z,75.1
2017-09-06T08:57:56.960Z,75.2
2017-09-06T08:58:58.993Z,75.0
2017-09-06T09:00:00.981Z,75.1
2017-09-06T09:02:06.950Z,75.0
2017-09-06T09:03:08.571Z,74.4
2017-09-06T09:04:10.221Z,74.8
2017-09-06T09:05:12.080Z,74.0
2017-09-06T09:06:14.645Z,74.4
2017-09-06T09:07:16.598Z,74.1
2017-09-06T09:08:18.479Z,74.2
2017-09-06T09:09:20.363Z,73.9
2017-09-06T09:10:22.343Z,74.2
2017-09-06T09:11:24.333Z,73.1
2017-09-06T09:12:26.430Z,73.5
2017-09-06T09:13:28.361Z,74.1
2017-09-06T09:14:30.304Z,73.3
2017-09-06T09:15:32.311Z,73.6
2017-09-06T09:16:34.339Z,73.7
2017-09-06T09:17:36.400Z,73.5
2017-09-06T09:18:38.374Z,72.9
2017-09-06T09:19:40.388Z,72.9
2017-09-06T09:20:42.300Z,73.7
2017-09-06T09:21:44.399Z,74.1
2017-09-06T09:22:46.336Z,72.7
2017-09-06T09:23:48.268Z,73.9
2017-09-06T09:24:50.313Z,73.0
2017-09-06T09:25:52.305Z,72.9
2017-09-06T09:26:54.182Z,73.5
2017-09-06T09:27:56.236Z,73.3
2017-09-06T09:28:58.236Z,73.3
2017-09-06T09:30:00.237Z,73.1
2017-09-06T09:31:02.252Z,73.2
2017-09-06T09:32:04.631Z,73.2
2017-09-06T09:33:06.551Z,73.3
2017-09-06T09:34:08.501Z,73.0
2017-09-06T09:35:10.657Z,72.1
2017-09-06T09:36:12.829Z,71.8
2017-09-06T09:37:14.713Z,71.2
2017-09-06T09:38:16.504Z,71.0
2017-09-06T09:39:18.500Z,71.1
2017-09-06T09:40:20.628Z,71.9
2017-09-06T09:41:22.654Z,72.3
2017-09-06T09:42:24.603Z,71.2
2017-09-06T09:43:26.571Z,71.1
2017-09-06T09:44:28.636Z,72.0
2017-09-06T09:45:30.404Z,71.6
2017-09-06T09:46:32.212Z,70.9
2017-09-06T09:47:34.245Z,71.1
2017-09-06T09:48:35.968Z,71.3
2017-09-06T09:49:37.892Z,70.5
2017-09-06T09:50:39.815Z,68.9
2017-09-06T09:51:41.824Z,69.6
2017-09-06T09:52:43.734Z,70.5
2017-09-06T09:53:45.645Z,70.7
2017-09-06T09:54:47.374Z,71.2
2017-09-06T09:55:49.367Z,71.7
2017-09-06T09:56:51.272Z,71.2
2017-09-06T09:57:55.234Z,71.1
2017-09-06T09:58:56.960Z,70.0
2017-09-06T10:00:00.280Z,67.6
2017-09-06T10:02:07.044Z,64.1
2017-09-06T10:03:08.486Z,64.7
2017-09-06T10:04:09.960Z,64.8
2017-09-06T10:05:11.603Z,65.7
2017-09-06T10:06:13.374Z,65.2
2017-09-06T10:07:15.170Z,65.7
2017-09-06T10:08:17.130Z,66.0
2017-09-06T10:09:18.937Z,64.5
2017-09-06T10:10:20.646Z,64.0
2017-09-06T10:11:22.429Z,64.2
2017-09-06T10:12:24.197Z,62.9
2017-09-06T10:13:25.936Z,62.5
2017-09-06T10:14:27.599Z,62.2
2017-09-06T10:15:29.395Z,61.6
2017-09-06T10:16:31.312Z,61.9
2017-09-06T10:17:33.161Z,61.0
2017-09-06T10:18:35.088Z,60.8
2017-09-06T10:19:36.841Z,61.4
2017-09-06T10:20:38.718Z,60.7
2017-09-06T10:21:40.664Z,61.2
2017-09-06T10:22:42.652Z,61.2
2017-09-06T10:23:44.436Z,60.4
2017-09-06T10:24:46.258Z,60.5
2017-09-06T10:25:48.058Z,58.8
2017-09-06T10:26:49.998Z,59.2
2017-09-06T10:27:51.916Z,57.5
2017-09-06T10:28:53.852Z,58.0
2017-09-06T10:29:55.852Z,58.0
2017-09-06T10:30:57.975Z,58.7
2017-09-06T10:32:00.005Z,59.7
2017-09-06T10:33:01.986Z,59.1
2017-09-06T10:34:04.033Z,57.4
2017-09-06T10:35:05.729Z,57.1
2017-09-06T10:36:07.559Z,56.4
2017-09-06T10:37:09.619Z,57.1
2017-09-06T10:38:11.470Z,55.4
2017-09-06T10:39:13.384Z,57.3
2017-09-06T10:40:15.453Z,56.9
2017-09-06T10:41:17.491Z,55.4
2017-09-06T10:42:19.456Z,55.3
2017-09-06T10:43:21.493Z,55.3
2017-09-06T10:44:23.381Z,54.6
2017-09-06T10:45:25.493Z,53.9
2017-09-06T10:46:27.496Z,54.2
2017-09-06T10:47:29.589Z,54.3
2017-09-06T10:48:31.493Z,55.1
2017-09-06T10:49:34.464Z,54.7
2017-09-06T10:50:36.442Z,55.0
2017-09-06T10:51:38.436Z,54.2
2017-09-06T10:52:40.421Z,54.4
2017-09-06T10:53:42.370Z,54.2
2017-09-06T10:54:44.318Z,53.8
2017-09-06T10:55:46.309Z,53.6
2017-09-06T10:56:48.323Z,53.7
2017-09-06T10:57:50.338Z,55.0
2017-09-06T10:58:52.273Z,53.8
2017-09-06T10:59:54.457Z,52.9
2017-09-06T11:00:56.563Z,52.6
2017-09-06T11:01:58.613Z,53.6
2017-09-06T11:03:00.655Z,52.3
2017-09-06T11:04:02.739Z,50.9
2017-09-06T11:05:04.253Z,50.8
2017-09-06T11:06:05.940Z,52.1
2017-09-06T11:07:07.572Z,51.1
2017-09-06T11:08:10.323Z,51.8
2017-09-06T11:09:12.078Z,51.0
2017-09-06T11:10:15.682Z,51.4
2017-09-06T11:11:17.841Z,51.8
2017-09-06T11:12:19.832Z,51.4
2017-09-06T11:13:21.789Z,50.7
2017-09-06T11:14:23.701Z,51.0
2017-09-06T11:15:25.895Z,50.9
2017-09-06T11:16:29.031Z,51.0
2017-09-06T11:17:30.999Z,51.6
2017-09-06T11:18:33.043Z,51.3
2017-09-06T11:19:35.375Z,50.2
2017-09-06T11:20:38.468Z,49.4
2017-09-06T11:21:40.568Z,50.3
2017-09-06T11:22:42.643Z,50.3
2017-09-06T11:23:44.836Z,50.4
2017-09-06T11:24:46.863Z,50.0
2017-09-06T11:25:48.997Z,50.9
2017-09-06T11:26:50.954Z,50.7
2017-09-06T11:27:52.950Z,52.5
2017-09-06T11:28:56.150Z,52.8
2017-09-06T11:29:58.144Z,53.3
2017-09-06T11:31:00.169Z,54.2
2017-09-06T11:32:02.054Z,54.6
2017-09-06T11:33:04.300Z,55.2
2017-09-06T11:34:06.589Z,55.9
2017-09-06T11:35:08.640Z,57.0
2017-09-06T11:36:10.750Z,55.8
2017-09-06T11:37:12.752Z,55.9
2017-09-06T11:38:14.874Z,56.0
2017-09-06T11:39:16.940Z,56.8
2017-09-06T11:40:19.029Z,56.7
2017-09-06T11:41:21.046Z,56.7
2017-09-06T11:42:23.236Z,55.8
2017-09-06T11:43:26.449Z,55.7
2017-09-06T11:44:28.631Z,56.6
2017-09-06T11:45:30.600Z,56.0
2017-09-06T11:46:32.563Z,55.7
2017-09-06T11:47:34.490Z,55.1
2017-09-06T11:48:36.407Z,54.9
2017-09-06T11:49:38.401Z,55.0
2017-09-06T11:50:40.620Z,53.3
2017-09-06T11:51:42.607Z,52.9
2017-09-06T11:52:44.555Z,53.7
2017-09-06T11:53:46.736Z,53.3
2017-09-06T11:54:48.630Z,53.8
2017-09-06T11:55:50.646Z,54.5
2017-09-06T11:56:52.624Z,53.7
2017-09-06T11:57:54.533Z,52.2
2017-09-06T11:58:56.603Z,52.2
2017-09-06T11:59:58.727Z,52.5
2017-09-06T12:01:00.597Z,52.9
2017-09-06T12:02:02.559Z,52.5
2017-09-06T12:03:04.453Z,52.2
2017-09-06T12:04:06.461Z,53.8
2017-09-06T12:05:08.316Z,53.0
2017-09-06T12:06:10.802Z,53.9
2017-09-06T12:07:12.885Z,53.9
2017-09-06T12:08:14.990Z,53.8
2017-09-06T12:09:17.373Z,53.5
2017-09-06T12:10:21.398Z,53.7
2017-09-06T12:11:23.623Z,53.9
2017-09-06T12:12:26.120Z,53.4
2017-09-06T12:13:28.282Z,53.7
2017-09-06T12:14:30.567Z,53.3
2017-09-06T12:15:33.861Z,53.4
2017-09-06T12:16:36.150Z,53.9
2017-09-06T12:17:38.191Z,52.5
2017-09-06T12:18:40.469Z,53.5
2017-09-06T12:19:42.609Z,52.5
2017-09-06T12:20:44.834Z,52.4
2017-09-06T12:21:48.324Z,52.4
2017-09-06T12:22:50.938Z,51.6
2017-09-06T12:23:53.280Z,51.5
2017-09-06T12:24:55.473Z,50.3
2017-09-06T12:25:57.596Z,50.7
2017-09-06T12:27:00.139Z,49.5
2017-09-06T12:28:02.275Z,49.9
2017-09-06T12:29:04.468Z,48.9
2017-09-06T12:30:06.514Z,47.7
2017-09-06T12:31:08.493Z,47.8
2017-09-06T12:32:10.700Z,46.5
2017-09-06T12:33:12.716Z,46.6
2017-09-06T12:34:18.549Z,46.8
2017-09-06T12:35:20.810Z,46.3
2017-09-06T12:36:22.877Z,45.7
2017-09-06T12:37:24.925Z,45.7
2017-09-06T12:38:26.982Z,46.4
2017-09-06T12:39:30.042Z,46.5
2017-09-06T12:40:32.110Z,47.6
2017-09-06T12:41:34.147Z,47.4
2017-09-06T12:42:36.196Z,46.1
2017-09-06T12:43:38.271Z,46.0
2017-09-06T12:44:40.363Z,45.8
2017-09-06T12:45:42.435Z,46.6
2017-09-06T12:46:44.656Z,44.9
2017-09-06T12:47:46.808Z,45.2
2017-09-06T12:48:49.137Z,44.5
2017-09-06T12:49:51.254Z,43.6
2017-09-06T12:50:53.394Z,44.0
2017-09-06T12:51:55.606Z,42.9
2017-09-06T12:52:57.909Z,42.8
2017-09-06T12:53:59.934Z,42.8
2017-09-06T12:55:02.087Z,43.4
2017-09-06T12:56:04.046Z,43.3
2017-09-06T12:57:05.957Z,44.1
2017-09-06T12:58:07.971Z,43.9
2017-09-06T12:59:10.011Z,43.6
2017-09-06T13:00:11.915Z,44.8
2017-09-06T13:01:13.964Z,44.6
2017-09-06T13:02:15.952Z,44.0
2017-09-06T13:03:18.790Z,44.5
2017-09-06T13:04:20.712Z,44.0
2017-09-06T13:05:22.638Z,44.8
2017-09-06T13:06:24.542Z,43.9
2017-09-06T13:07:26.552Z,44.8
2017-09-06T13:08:28.553Z,44.8
2017-09-06T13:09:30.466Z,43.4
2017-09-06T13:10:32.578Z,44.5
2017-09-06T13:11:34.417Z,43.8
2017-09-06T13:12:36.290Z,44.1
2017-09-06T13:13:39.238Z,45.2
2017-09-06T13:14:41.182Z,45.2
2017-09-06T13:15:43.201Z,45.0
2017-09-06T13:16:45.156Z,45.5
2017-09-06T13:17:46.923Z,45.8
2017-09-06T13:18:48.805Z,45.2
2017-09-06T13:19:50.823Z,44.5
2017-09-06T13:20:52.691Z,44.3
2017-09-06T13:21:54.582Z,44.2
2017-09-06T13:22:56.570Z,43.6
2017-09-06T13:23:58.682Z,44.8
2017-09-06T13:25:00.679Z,44.4
2017-09-06T13:26:02.520Z,43.3
2017-09-06T13:27:04.484Z,43.8
2017-09-06T13:28:06.440Z,43.0
2017-09-06T13:29:08.527Z,43.4
2017-09-06T13:30:10.745Z,43.4
2017-09-06T13:31:12.770Z,43.3
2017-09-06T13:32:14.743Z,44.1
2017-09-06T13:33:16.686Z,43.3
2017-09-06T13:34:18.742Z,43.2
2017-09-06T13:35:20.919Z,44.0
2017-09-06T13:36:23.004Z,43.8
2017-09-06T13:37:24.928Z,44.4
2017-09-06T13:38:26.841Z,43.4
2017-09-06T13:39:28.764Z,42.9
2017-09-06T13:40:31.106Z,44.0
2017-09-06T13:41:33.254Z,44.4
2017-09-06T13:42:35.405Z,44.8
2017-09-06T13:43:42.768Z,44.7
2017-09-06T13:44:44.666Z,44.4
2017-09-06T13:45:46.742Z,44.8
2017-09-06T13:46:48.728Z,45.0
2017-09-06T13:47:50.653Z,45.1
2017-09-06T13:48:52.588Z,45.7